sensor_id;sensor_type;location;lat;lon;timestamp;temperature;humidity
25504;DHT22;13410;52.114;5.718;2023-03-14T00:00:59;16.00;99.90
25504;DHT22;13410;52.114;5.718;2023-03-14T00:03:24;16.00;99.90
25504;DHT22;13410;52.114;5.718;2023-03-14T00:05:50;16.00;99.90
25504;DHT22;13410;52.114;5.718;2023-03-14T00:08:16;15.80;99.90
25504;DHT22;13410;52.114;5.718;2023-03-14T00:10:41;15.80;99.90
25504;DHT22;13410;52.114;5.718;2023-03-14T00:13:07;15.70;99.90
25504;DHT22;13410;52.114;5.718;2023-03-14T00:15:35;15.70;99.90
25504;DHT22;13410;52.114;5.718;2023-03-14T00:18:01;15.60;99.90
25504;DHT22;13410;52.114;5.718;2023-03-14T00:20:27;15.60;99.90
25504;DHT22;13410;52.114;5.718;2023-03-14T00:22:52;15.70;99.90
25504;DHT22;13410;52.114;5.718;2023-03-14T00:25:18;15.70;99.90
25504;DHT22;13410;52.114;5.718;2023-03-14T00:27:43;15.70;99.90
25504;DHT22;13410;52.114;5.718;2023-03-14T00:30:11;15.70;99.90
25504;DHT22;13410;52.114;5.718;2023-03-14T00:32:37;15.70;99.90
25504;DHT22;13410;52.114;5.718;2023-03-14T00:35:03;15.80;99.90
25504;DHT22;13410;52.114;5.718;2023-03-14T00:37:29;15.70;99.90
25504;DHT22;13410;52.114;5.718;2023-03-14T00:39:55;15.70;99.90
25504;DHT22;13410;52.114;5.718;2023-03-14T00:42:20;15.70;99.90
25504;DHT22;13410;52.114;5.718;2023-03-14T00:44:46;15.60;99.90
25504;DHT22;13410;52.114;5.718;2023-03-14T00:47:11;15.60;99.90
25504;DHT22;13410;52.114;5.718;2023-03-14T00:49:37;15.50;99.90
25504;DHT22;13410;52.114;5.718;2023-03-14T00:52:03;15.50;99.90
25504;DHT22;13410;52.114;5.718;2023-03-14T00:54:28;15.50;99.90
25504;DHT22;13410;52.114;5.718;2023-03-14T00:56:54;15.30;99.90
25504;DHT22;13410;52.114;5.718;2023-03-14T00:59:19;15.40;99.90
25504;DHT22;13410;52.114;5.718;2023-03-14T01:01:45;15.40;99.90
25504;DHT22;13410;52.114;5.718;2023-03-14T01:04:10;15.40;99.90
25504;DHT22;13410;52.114;5.718;2023-03-14T01:06:36;15.50;99.90
25504;DHT22;13410;52.114;5.718;2023-03-14T01:09:02;15.30;99.90
25504;DHT22;13410;52.114;5.718;2023-03-14T01:11:30;15.00;99.90
25504;DHT22;13410;52.114;5.718;2023-03-14T01:13:56;15.00;99.90
25504;DHT22;13410;52.114;5.718;2023-03-14T01:16:24;14.80;99.90
25504;DHT22;13410;52.114;5.718;2023-03-14T01:18:50;14.70;99.90
25504;DHT22;13410;52.114;5.718;2023-03-14T01:21:25;14.50;99.90
25504;DHT22;13410;52.114;5.718;2023-03-14T01:23:52;14.20;99.90
25504;DHT22;13410;52.114;5.718;2023-03-14T01:26:19;14.10;99.90
25504;DHT22;13410;52.114;5.718;2023-03-14T01:28:46;13.90;99.90
25504;DHT22;13410;52.114;5.718;2023-03-14T01:31:12;14.00;99.90
25504;DHT22;13410;52.114;5.718;2023-03-14T01:33:39;14.00;99.90
25504;DHT22;13410;52.114;5.718;2023-03-14T01:36:05;14.10;99.90
25504;DHT22;13410;52.114;5.718;2023-03-14T01:38:32;14.20;99.90
25504;DHT22;13410;52.114;5.718;2023-03-14T01:40:58;14.10;99.90
25504;DHT22;13410;52.114;5.718;2023-03-14T01:43:24;13.80;99.90
25504;DHT22;13410;52.114;5.718;2023-03-14T01:46:34;13.80;99.90
25504;DHT22;13410;52.114;5.718;2023-03-14T01:49:09;14.00;99.90
25504;DHT22;13410;52.114;5.718;2023-03-14T01:51:53;14.00;99.90
25504;DHT22;13410;52.114;5.718;2023-03-14T01:54:44;13.90;99.90
25504;DHT22;13410;52.114;5.718;2023-03-14T01:57:22;13.80;99.90
25504;DHT22;13410;52.114;5.718;2023-03-14T02:00:23;14.00;99.90
25504;DHT22;13410;52.114;5.718;2023-03-14T02:03:02;14.10;99.90
25504;DHT22;13410;52.114;5.718;2023-03-14T02:05:32;14.10;99.90
25504;DHT22;13410;52.114;5.718;2023-03-14T02:08:00;14.10;99.90
25504;DHT22;13410;52.114;5.718;2023-03-14T02:10:28;14.20;99.90
25504;DHT22;13410;52.114;5.718;2023-03-14T02:12:57;14.20;99.90
25504;DHT22;13410;52.114;5.718;2023-03-14T02:15:25;14.20;99.90
25504;DHT22;13410;52.114;5.718;2023-03-14T02:17:51;14.20;99.90
25504;DHT22;13410;52.114;5.718;2023-03-14T02:23:32;13.70;99.90
25504;DHT22;13410;52.114;5.718;2023-03-14T02:26:06;13.70;99.90
25504;DHT22;13410;52.114;5.718;2023-03-14T02:28:33;13.70;99.90
25504;DHT22;13410;52.114;5.718;2023-03-14T02:30:58;13.50;99.90
25504;DHT22;13410;52.114;5.718;2023-03-14T02:33:24;13.60;99.90
25504;DHT22;13410;52.114;5.718;2023-03-14T02:35:55;13.60;99.90
25504;DHT22;13410;52.114;5.718;2023-03-14T02:38:43;13.50;99.90
25504;DHT22;13410;52.114;5.718;2023-03-14T02:41:11;13.50;99.90
25504;DHT22;13410;52.114;5.718;2023-03-14T02:43:36;13.60;99.90
25504;DHT22;13410;52.114;5.718;2023-03-14T02:46:03;13.70;99.90
25504;DHT22;13410;52.114;5.718;2023-03-14T02:48:35;13.70;99.90
25504;DHT22;13410;52.114;5.718;2023-03-14T02:51:03;13.70;99.90
25504;DHT22;13410;52.114;5.718;2023-03-14T02:53:31;13.70;99.90
25504;DHT22;13410;52.114;5.718;2023-03-14T02:55:58;13.70;99.90
25504;DHT22;13410;52.114;5.718;2023-03-14T02:58:24;13.60;99.90
25504;DHT22;13410;52.114;5.718;2023-03-14T03:00:50;13.70;99.90
25504;DHT22;13410;52.114;5.718;2023-03-14T03:03:15;13.70;99.90
25504;DHT22;13410;52.114;5.718;2023-03-14T03:05:41;13.70;99.90
25504;DHT22;13410;52.114;5.718;2023-03-14T03:08:09;13.60;99.90
25504;DHT22;13410;52.114;5.718;2023-03-14T03:10:35;13.60;99.90
25504;DHT22;13410;52.114;5.718;2023-03-14T03:13:00;13.60;99.90
25504;DHT22;13410;52.114;5.718;2023-03-14T03:15:26;13.60;99.90
25504;DHT22;13410;52.114;5.718;2023-03-14T03:17:52;13.80;99.90
25504;DHT22;13410;52.114;5.718;2023-03-14T03:20:17;13.80;99.90
25504;DHT22;13410;52.114;5.718;2023-03-14T03:22:43;13.80;99.90
25504;DHT22;13410;52.114;5.718;2023-03-14T03:25:08;13.70;99.90
25504;DHT22;13410;52.114;5.718;2023-03-14T03:27:35;13.70;99.90
25504;DHT22;13410;52.114;5.718;2023-03-14T03:30:02;13.70;99.90
25504;DHT22;13410;52.114;5.718;2023-03-14T03:32:28;13.70;99.90
25504;DHT22;13410;52.114;5.718;2023-03-14T03:34:54;13.70;99.90
25504;DHT22;13410;52.114;5.718;2023-03-14T03:37:19;13.80;99.90
25504;DHT22;13410;52.114;5.718;2023-03-14T03:39:45;13.90;99.90
25504;DHT22;13410;52.114;5.718;2023-03-14T03:42:10;13.90;99.90
25504;DHT22;13410;52.114;5.718;2023-03-14T03:44:36;13.90;99.90
25504;DHT22;13410;52.114;5.718;2023-03-14T03:47:02;13.90;99.90
25504;DHT22;13410;52.114;5.718;2023-03-14T03:49:31;13.90;99.90
25504;DHT22;13410;52.114;5.718;2023-03-14T03:51:58;13.90;99.90
25504;DHT22;13410;52.114;5.718;2023-03-14T03:54:24;14.20;99.90
25504;DHT22;13410;52.114;5.718;2023-03-14T03:56:49;13.90;99.90
25504;DHT22;13410;52.114;5.718;2023-03-14T03:59:15;13.80;99.90
25504;DHT22;13410;52.114;5.718;2023-03-14T04:01:40;13.90;99.90
25504;DHT22;13410;52.114;5.718;2023-03-14T04:04:06;13.90;99.90
25504;DHT22;13410;52.114;5.718;2023-03-14T04:06:32;13.90;99.90
25504;DHT22;13410;52.114;5.718;2023-03-14T04:08:57;14.00;99.90
25504;DHT22;13410;52.114;5.718;2023-03-14T04:11:23;13.90;99.90
25504;DHT22;13410;52.114;5.718;2023-03-14T04:13:49;13.90;99.90
25504;DHT22;13410;52.114;5.718;2023-03-14T04:16:17;14.10;99.90
25504;DHT22;13410;52.114;5.718;2023-03-14T04:18:43;14.10;99.90
25504;DHT22;13410;52.114;5.718;2023-03-14T04:21:09;14.00;99.90
25504;DHT22;13410;52.114;5.718;2023-03-14T04:23:35;14.00;99.90
25504;DHT22;13410;52.114;5.718;2023-03-14T04:26:00;14.00;99.90
25504;DHT22;13410;52.114;5.718;2023-03-14T04:28:26;14.20;99.90
25504;DHT22;13410;52.114;5.718;2023-03-14T04:30:51;14.00;99.90
25504;DHT22;13410;52.114;5.718;2023-03-14T04:33:17;14.00;99.90
25504;DHT22;13410;52.114;5.718;2023-03-14T04:35:43;13.90;99.90
25504;DHT22;13410;52.114;5.718;2023-03-14T04:38:10;14.00;99.90
25504;DHT22;13410;52.114;5.718;2023-03-14T04:40:39;14.00;99.90
25504;DHT22;13410;52.114;5.718;2023-03-14T04:43:05;13.80;99.90
25504;DHT22;13410;52.114;5.718;2023-03-14T04:45:31;13.80;99.90
25504;DHT22;13410;52.114;5.718;2023-03-14T04:47:56;13.80;99.90
25504;DHT22;13410;52.114;5.718;2023-03-14T04:50:22;13.80;99.90
25504;DHT22;13410;52.114;5.718;2023-03-14T04:52:48;13.80;99.90
25504;DHT22;13410;52.114;5.718;2023-03-14T04:55:14;13.80;99.90
25504;DHT22;13410;52.114;5.718;2023-03-14T04:57:39;13.90;99.90
25504;DHT22;13410;52.114;5.718;2023-03-14T05:00:05;13.90;99.90
25504;DHT22;13410;52.114;5.718;2023-03-14T05:02:32;13.90;99.90
25504;DHT22;13410;52.114;5.718;2023-03-14T05:04:58;13.80;99.90
25504;DHT22;13410;52.114;5.718;2023-03-14T05:07:23;14.00;99.90
25504;DHT22;13410;52.114;5.718;2023-03-14T05:09:49;14.00;99.90
25504;DHT22;13410;52.114;5.718;2023-03-14T05:12:14;13.90;99.90
25504;DHT22;13410;52.114;5.718;2023-03-14T05:14:40;14.00;99.90
25504;DHT22;13410;52.114;5.718;2023-03-14T05:17:05;14.00;99.90
25504;DHT22;13410;52.114;5.718;2023-03-14T05:19:31;13.90;99.90
25504;DHT22;13410;52.114;5.718;2023-03-14T05:21:56;14.00;99.90
25504;DHT22;13410;52.114;5.718;2023-03-14T05:24:22;14.10;99.90
25504;DHT22;13410;52.114;5.718;2023-03-14T05:26:48;14.20;99.90
25504;DHT22;13410;52.114;5.718;2023-03-14T05:29:13;14.20;99.90
25504;DHT22;13410;52.114;5.718;2023-03-14T05:31:39;14.20;99.90
25504;DHT22;13410;52.114;5.718;2023-03-14T05:34:05;14.10;99.90
25504;DHT22;13410;52.114;5.718;2023-03-14T05:36:30;14.10;99.90
25504;DHT22;13410;52.114;5.718;2023-03-14T05:38:56;14.00;99.90
25504;DHT22;13410;52.114;5.718;2023-03-14T05:41:22;13.90;99.90
25504;DHT22;13410;52.114;5.718;2023-03-14T05:43:47;13.90;99.90
25504;DHT22;13410;52.114;5.718;2023-03-14T05:46:13;13.90;99.90
25504;DHT22;13410;52.114;5.718;2023-03-14T05:48:38;14.00;99.90
25504;DHT22;13410;52.114;5.718;2023-03-14T05:51:04;14.00;99.90
25504;DHT22;13410;52.114;5.718;2023-03-14T05:53:29;14.00;99.90
25504;DHT22;13410;52.114;5.718;2023-03-14T05:55:56;13.90;99.90
25504;DHT22;13410;52.114;5.718;2023-03-14T05:58:21;13.90;99.90
25504;DHT22;13410;52.114;5.718;2023-03-14T06:00:47;13.80;99.90
25504;DHT22;13410;52.114;5.718;2023-03-14T06:03:13;13.80;99.90
25504;DHT22;13410;52.114;5.718;2023-03-14T06:05:39;13.80;99.90
25504;DHT22;13410;52.114;5.718;2023-03-14T06:08:05;13.90;99.90
25504;DHT22;13410;52.114;5.718;2023-03-14T06:10:31;13.90;99.90
25504;DHT22;13410;52.114;5.718;2023-03-14T06:12:56;14.00;99.90
25504;DHT22;13410;52.114;5.718;2023-03-14T06:15:22;13.90;99.90
25504;DHT22;13410;52.114;5.718;2023-03-14T06:17:47;13.80;99.90
25504;DHT22;13410;52.114;5.718;2023-03-14T06:20:13;13.80;99.90
25504;DHT22;13410;52.114;5.718;2023-03-14T06:22:39;13.80;99.90
25504;DHT22;13410;52.114;5.718;2023-03-14T06:25:06;13.80;99.90
25504;DHT22;13410;52.114;5.718;2023-03-14T06:27:31;13.70;99.90
25504;DHT22;13410;52.114;5.718;2023-03-14T06:29:57;13.80;99.90
25504;DHT22;13410;52.114;5.718;2023-03-14T06:32:23;13.70;99.90
25504;DHT22;13410;52.114;5.718;2023-03-14T06:34:48;13.80;99.90
25504;DHT22;13410;52.114;5.718;2023-03-14T06:37:14;13.90;99.90
25504;DHT22;13410;52.114;5.718;2023-03-14T06:39:40;14.00;99.90
25504;DHT22;13410;52.114;5.718;2023-03-14T06:42:05;14.10;99.90
25504;DHT22;13410;52.114;5.718;2023-03-14T06:44:31;14.10;99.90
25504;DHT22;13410;52.114;5.718;2023-03-14T06:46:56;14.30;99.90
25504;DHT22;13410;52.114;5.718;2023-03-14T06:49:22;14.30;99.90
25504;DHT22;13410;52.114;5.718;2023-03-14T06:51:48;14.30;99.90
25504;DHT22;13410;52.114;5.718;2023-03-14T06:54:14;14.30;99.90
25504;DHT22;13410;52.114;5.718;2023-03-14T06:56:39;14.40;99.90
25504;DHT22;13410;52.114;5.718;2023-03-14T06:59:05;14.30;99.90
25504;DHT22;13410;52.114;5.718;2023-03-14T07:01:31;14.40;99.90
25504;DHT22;13410;52.114;5.718;2023-03-14T07:03:58;14.10;99.90
25504;DHT22;13410;52.114;5.718;2023-03-14T07:06:24;14.00;99.90
25504;DHT22;13410;52.114;5.718;2023-03-14T07:08:50;13.90;99.90
25504;DHT22;13410;52.114;5.718;2023-03-14T07:11:16;13.70;99.90
25504;DHT22;13410;52.114;5.718;2023-03-14T07:13:41;13.50;99.90
25504;DHT22;13410;52.114;5.718;2023-03-14T07:16:07;13.50;99.90
25504;DHT22;13410;52.114;5.718;2023-03-14T07:18:34;13.20;99.90
25504;DHT22;13410;52.114;5.718;2023-03-14T07:21:00;12.80;99.90
25504;DHT22;13410;52.114;5.718;2023-03-14T07:23:25;12.00;99.90
25504;DHT22;13410;52.114;5.718;2023-03-14T07:25:51;11.20;99.90
25504;DHT22;13410;52.114;5.718;2023-03-14T07:28:18;10.90;99.90
25504;DHT22;13410;52.114;5.718;2023-03-14T07:30:46;10.60;99.90
25504;DHT22;13410;52.114;5.718;2023-03-14T07:33:12;10.60;99.90
25504;DHT22;13410;52.114;5.718;2023-03-14T07:35:37;10.70;99.90
25504;DHT22;13410;52.114;5.718;2023-03-14T07:38:03;10.90;99.90
25504;DHT22;13410;52.114;5.718;2023-03-14T07:40:29;11.10;99.90
25504;DHT22;13410;52.114;5.718;2023-03-14T07:42:54;10.90;99.90
25504;DHT22;13410;52.114;5.718;2023-03-14T07:45:21;10.80;99.90
25504;DHT22;13410;52.114;5.718;2023-03-14T07:47:46;10.90;99.90
25504;DHT22;13410;52.114;5.718;2023-03-14T07:50:12;10.70;99.90
25504;DHT22;13410;52.114;5.718;2023-03-14T07:52:37;10.50;99.90
25504;DHT22;13410;52.114;5.718;2023-03-14T07:55:03;10.50;99.90
25504;DHT22;13410;52.114;5.718;2023-03-14T07:57:29;10.60;99.90
25504;DHT22;13410;52.114;5.718;2023-03-14T07:59:54;10.80;99.90
25504;DHT22;13410;52.114;5.718;2023-03-14T08:02:20;10.70;99.90
25504;DHT22;13410;52.114;5.718;2023-03-14T08:04:47;10.60;99.90
25504;DHT22;13410;52.114;5.718;2023-03-14T08:07:14;10.80;99.90
25504;DHT22;13410;52.114;5.718;2023-03-14T08:09:39;10.80;99.90
25504;DHT22;13410;52.114;5.718;2023-03-14T08:12:05;10.60;99.90
25504;DHT22;13410;52.114;5.718;2023-03-14T08:14:31;10.40;99.90
25504;DHT22;13410;52.114;5.718;2023-03-14T08:16:57;10.10;99.90
25504;DHT22;13410;52.114;5.718;2023-03-14T08:19:22;9.60;99.90
25504;DHT22;13410;52.114;5.718;2023-03-14T08:21:48;9.20;99.90
25504;DHT22;13410;52.114;5.718;2023-03-14T08:24:13;9.00;99.90
25504;DHT22;13410;52.114;5.718;2023-03-14T08:26:39;8.80;99.90
25504;DHT22;13410;52.114;5.718;2023-03-14T08:29:04;8.70;99.90
25504;DHT22;13410;52.114;5.718;2023-03-14T08:31:30;8.80;99.90
25504;DHT22;13410;52.114;5.718;2023-03-14T08:33:58;8.80;99.90
25504;DHT22;13410;52.114;5.718;2023-03-14T08:36:24;8.80;99.90
25504;DHT22;13410;52.114;5.718;2023-03-14T08:38:50;8.60;99.90
25504;DHT22;13410;52.114;5.718;2023-03-14T08:41:15;8.30;99.90
25504;DHT22;13410;52.114;5.718;2023-03-14T08:43:41;8.20;99.90
25504;DHT22;13410;52.114;5.718;2023-03-14T08:46:07;8.50;99.90
25504;DHT22;13410;52.114;5.718;2023-03-14T08:48:32;8.80;99.90
25504;DHT22;13410;52.114;5.718;2023-03-14T08:51:14;8.90;99.90
25504;DHT22;13410;52.114;5.718;2023-03-14T08:53:40;8.60;99.90
25504;DHT22;13410;52.114;5.718;2023-03-14T08:56:06;8.10;99.90
25504;DHT22;13410;52.114;5.718;2023-03-14T08:58:32;8.30;99.90
25504;DHT22;13410;52.114;5.718;2023-03-14T09:00:58;8.20;99.90
25504;DHT22;13410;52.114;5.718;2023-03-14T09:03:25;8.20;99.90
25504;DHT22;13410;52.114;5.718;2023-03-14T09:05:51;8.20;99.90
25504;DHT22;13410;52.114;5.718;2023-03-14T09:08:17;8.20;99.90
25504;DHT22;13410;52.114;5.718;2023-03-14T09:10:43;8.30;99.90
25504;DHT22;13410;52.114;5.718;2023-03-14T09:13:08;8.50;99.90
25504;DHT22;13410;52.114;5.718;2023-03-14T09:15:34;8.50;99.90
25504;DHT22;13410;52.114;5.718;2023-03-14T09:18:00;8.50;99.90
25504;DHT22;13410;52.114;5.718;2023-03-14T09:20:26;8.30;99.90
25504;DHT22;13410;52.114;5.718;2023-03-14T09:22:51;8.70;99.90
25504;DHT22;13410;52.114;5.718;2023-03-14T09:25:17;9.00;99.90
25504;DHT22;13410;52.114;5.718;2023-03-14T09:27:42;9.30;99.90
25504;DHT22;13410;52.114;5.718;2023-03-14T09:30:08;9.70;99.90
25504;DHT22;13410;52.114;5.718;2023-03-14T09:32:34;9.40;99.90
25504;DHT22;13410;52.114;5.718;2023-03-14T09:35:00;9.30;99.90
25504;DHT22;13410;52.114;5.718;2023-03-14T09:37:25;9.40;99.90
25504;DHT22;13410;52.114;5.718;2023-03-14T09:39:51;9.10;99.90
25504;DHT22;13410;52.114;5.718;2023-03-14T09:42:19;9.20;99.90
25504;DHT22;13410;52.114;5.718;2023-03-14T09:44:54;9.40;99.90
25504;DHT22;13410;52.114;5.718;2023-03-14T09:47:20;9.40;99.90
25504;DHT22;13410;52.114;5.718;2023-03-14T09:49:47;9.50;99.90
25504;DHT22;13410;52.114;5.718;2023-03-14T09:52:32;9.50;99.90
25504;DHT22;13410;52.114;5.718;2023-03-14T09:55:10;9.40;99.90
25504;DHT22;13410;52.114;5.718;2023-03-14T09:57:37;9.40;99.90
25504;DHT22;13410;52.114;5.718;2023-03-14T10:00:29;9.30;99.90
25504;DHT22;13410;52.114;5.718;2023-03-14T10:02:56;9.30;99.90
25504;DHT22;13410;52.114;5.718;2023-03-14T10:05:24;9.30;99.90
25504;DHT22;13410;52.114;5.718;2023-03-14T10:07:50;9.30;99.90
25504;DHT22;13410;52.114;5.718;2023-03-14T10:10:21;9.10;99.90
25504;DHT22;13410;52.114;5.718;2023-03-14T10:12:54;9.00;99.90
25504;DHT22;13410;52.114;5.718;2023-03-14T10:15:26;8.90;99.90
25504;DHT22;13410;52.114;5.718;2023-03-14T10:17:52;9.10;99.90
25504;DHT22;13410;52.114;5.718;2023-03-14T10:20:39;9.10;99.90
25504;DHT22;13410;52.114;5.718;2023-03-14T10:26:08;9.10;99.90
25504;DHT22;13410;52.114;5.718;2023-03-14T10:28:47;9.20;99.90
25504;DHT22;13410;52.114;5.718;2023-03-14T10:31:14;9.30;99.90
25504;DHT22;13410;52.114;5.718;2023-03-14T10:33:40;9.60;99.90
25504;DHT22;13410;52.114;5.718;2023-03-14T10:36:19;9.40;99.90
25504;DHT22;13410;52.114;5.718;2023-03-14T10:38:45;8.90;99.90
25504;DHT22;13410;52.114;5.718;2023-03-14T10:41:23;8.60;99.90
25504;DHT22;13410;52.114;5.718;2023-03-14T10:43:51;8.40;99.90
25504;DHT22;13410;52.114;5.718;2023-03-14T10:46:19;8.30;99.90
25504;DHT22;13410;52.114;5.718;2023-03-14T10:48:47;8.20;99.90
25504;DHT22;13410;52.114;5.718;2023-03-14T10:51:22;8.30;99.90
25504;DHT22;13410;52.114;5.718;2023-03-14T10:53:56;8.60;99.90
25504;DHT22;13410;52.114;5.718;2023-03-14T10:56:23;9.10;99.90
25504;DHT22;13410;52.114;5.718;2023-03-14T10:58:55;9.00;99.90
25504;DHT22;13410;52.114;5.718;2023-03-14T11:09:58;8.70;99.90
25504;DHT22;13410;52.114;5.718;2023-03-14T11:15:34;8.90;99.90
25504;DHT22;13410;52.114;5.718;2023-03-14T11:18:27;9.10;99.90
25504;DHT22;13410;52.114;5.718;2023-03-14T11:23:54;8.90;99.90
25504;DHT22;13410;52.114;5.718;2023-03-14T11:29:20;9.60;99.90
25504;DHT22;13410;52.114;5.718;2023-03-14T11:31:46;9.70;99.90
25504;DHT22;13410;52.114;5.718;2023-03-14T11:34:39;9.30;99.90
25504;DHT22;13410;52.114;5.718;2023-03-14T11:37:27;9.10;99.90
25504;DHT22;13410;52.114;5.718;2023-03-14T11:40:18;9.10;99.90
25504;DHT22;13410;52.114;5.718;2023-03-14T11:42:48;9.20;99.90
25504;DHT22;13410;52.114;5.718;2023-03-14T11:45:19;9.30;99.90
25504;DHT22;13410;52.114;5.718;2023-03-14T11:47:52;9.10;99.90
25504;DHT22;13410;52.114;5.718;2023-03-14T11:50:27;9.00;99.90
25504;DHT22;13410;52.114;5.718;2023-03-14T11:53:04;9.00;99.90
25504;DHT22;13410;52.114;5.718;2023-03-14T11:55:32;9.20;99.90
25504;DHT22;13410;52.114;5.718;2023-03-14T11:58:03;9.50;99.90
25504;DHT22;13410;52.114;5.718;2023-03-14T12:00:35;9.80;99.90
25504;DHT22;13410;52.114;5.718;2023-03-14T12:03:17;9.50;99.90
25504;DHT22;13410;52.114;5.718;2023-03-14T12:09:02;9.40;99.90
25504;DHT22;13410;52.114;5.718;2023-03-14T12:11:39;9.80;99.90
25504;DHT22;13410;52.114;5.718;2023-03-14T12:14:30;9.80;99.90
25504;DHT22;13410;52.114;5.718;2023-03-14T12:17:04;10.10;99.90
25504;DHT22;13410;52.114;5.718;2023-03-14T12:19:32;10.10;99.90
25504;DHT22;13410;52.114;5.718;2023-03-14T12:24:30;9.70;99.90
25504;DHT22;13410;52.114;5.718;2023-03-14T12:26:59;9.50;99.90
25504;DHT22;13410;52.114;5.718;2023-03-14T12:29:25;9.50;99.90
25504;DHT22;13410;52.114;5.718;2023-03-14T12:32:08;9.40;99.90
25504;DHT22;13410;52.114;5.718;2023-03-14T12:34:41;9.60;99.90
25504;DHT22;13410;52.114;5.718;2023-03-14T12:39:58;9.80;99.90
25504;DHT22;13410;52.114;5.718;2023-03-14T12:45:29;9.60;99.90
25504;DHT22;13410;52.114;5.718;2023-03-14T12:50:46;9.40;99.90
25504;DHT22;13410;52.114;5.718;2023-03-14T12:53:30;9.20;99.90
25504;DHT22;13410;52.114;5.718;2023-03-14T12:56:26;9.20;99.90
25504;DHT22;13410;52.114;5.718;2023-03-14T12:59:23;9.50;99.90
25504;DHT22;13410;52.114;5.718;2023-03-14T13:02:41;9.50;99.90
25504;DHT22;13410;52.114;5.718;2023-03-14T13:04:46;9.80;99.90
25504;DHT22;13410;52.114;5.718;2023-03-14T13:07:35;9.80;99.90
25504;DHT22;13410;52.114;5.718;2023-03-14T13:10:24;10.10;99.90
25504;DHT22;13410;52.114;5.718;2023-03-14T13:13:23;10.20;99.90
25504;DHT22;13410;52.114;5.718;2023-03-14T13:15:55;10.50;99.90
25504;DHT22;13410;52.114;5.718;2023-03-14T13:18:40;10.40;99.90
25504;DHT22;13410;52.114;5.718;2023-03-14T13:21:18;10.50;99.90
25504;DHT22;13410;52.114;5.718;2023-03-14T13:24:01;10.20;99.90
25504;DHT22;13410;52.114;5.718;2023-03-14T13:26:37;10.30;99.90
25504;DHT22;13410;52.114;5.718;2023-03-14T13:29:16;10.40;99.90
25504;DHT22;13410;52.114;5.718;2023-03-14T13:31:47;10.20;99.90
25504;DHT22;13410;52.114;5.718;2023-03-14T13:34:13;10.10;99.90
25504;DHT22;13410;52.114;5.718;2023-03-14T13:36:39;10.10;99.90
25504;DHT22;13410;52.114;5.718;2023-03-14T13:39:13;10.10;99.90
25504;DHT22;13410;52.114;5.718;2023-03-14T13:41:42;10.00;99.90
25504;DHT22;13410;52.114;5.718;2023-03-14T13:44:15;9.90;99.90
25504;DHT22;13410;52.114;5.718;2023-03-14T13:46:41;9.90;99.90
25504;DHT22;13410;52.114;5.718;2023-03-14T13:49:12;10.00;99.90
25504;DHT22;13410;52.114;5.718;2023-03-14T13:51:42;9.80;99.90
25504;DHT22;13410;52.114;5.718;2023-03-14T13:54:19;9.90;99.90
25504;DHT22;13410;52.114;5.718;2023-03-14T13:56:46;9.80;99.90
25504;DHT22;13410;52.114;5.718;2023-03-14T13:59:31;10.00;99.90
25504;DHT22;13410;52.114;5.718;2023-03-14T14:01:59;10.00;99.90
25504;DHT22;13410;52.114;5.718;2023-03-14T14:04:26;10.00;99.90
25504;DHT22;13410;52.114;5.718;2023-03-14T14:06:56;9.90;99.90
25504;DHT22;13410;52.114;5.718;2023-03-14T14:09:26;9.70;99.90
25504;DHT22;13410;52.114;5.718;2023-03-14T14:12:19;9.70;99.90
25504;DHT22;13410;52.114;5.718;2023-03-14T14:14:52;9.70;99.90
25504;DHT22;13410;52.114;5.718;2023-03-14T14:20:35;9.70;99.90
25504;DHT22;13410;52.114;5.718;2023-03-14T14:23:03;9.90;99.90
25504;DHT22;13410;52.114;5.718;2023-03-14T14:25:30;9.70;99.90
25504;DHT22;13410;52.114;5.718;2023-03-14T14:27:56;9.70;99.90
25504;DHT22;13410;52.114;5.718;2023-03-14T14:30:27;9.80;99.90
25504;DHT22;13410;52.114;5.718;2023-03-14T14:33:06;10.00;99.90
25504;DHT22;13410;52.114;5.718;2023-03-14T14:35:33;10.00;99.90
25504;DHT22;13410;52.114;5.718;2023-03-14T14:38:00;9.80;99.90
25504;DHT22;13410;52.114;5.718;2023-03-14T14:40:28;9.70;99.90
25504;DHT22;13410;52.114;5.718;2023-03-14T14:42:55;9.70;99.90
25504;DHT22;13410;52.114;5.718;2023-03-14T14:45:28;9.60;99.90
25504;DHT22;13410;52.114;5.718;2023-03-14T14:50:27;9.70;99.90
25504;DHT22;13410;52.114;5.718;2023-03-14T14:52:57;9.50;99.90
25504;DHT22;13410;52.114;5.718;2023-03-14T14:55:33;9.30;99.90
25504;DHT22;13410;52.114;5.718;2023-03-14T14:58:18;9.20;99.90
25504;DHT22;13410;52.114;5.718;2023-03-14T15:01:08;9.20;99.90
25504;DHT22;13410;52.114;5.718;2023-03-14T15:03:36;9.20;99.90
25504;DHT22;13410;52.114;5.718;2023-03-14T15:06:02;9.20;99.90
25504;DHT22;13410;52.114;5.718;2023-03-14T15:08:28;9.30;99.90
25504;DHT22;13410;52.114;5.718;2023-03-14T15:10:55;9.40;99.90
25504;DHT22;13410;52.114;5.718;2023-03-14T15:13:22;9.30;99.90
25504;DHT22;13410;52.114;5.718;2023-03-14T15:15:49;9.30;99.90
25504;DHT22;13410;52.114;5.718;2023-03-14T15:18:17;9.20;99.90
25504;DHT22;13410;52.114;5.718;2023-03-14T15:20:44;9.30;99.90
25504;DHT22;13410;52.114;5.718;2023-03-14T15:23:11;9.10;99.90
25504;DHT22;13410;52.114;5.718;2023-03-14T15:25:37;9.20;99.90
25504;DHT22;13410;52.114;5.718;2023-03-14T15:28:13;9.30;99.90
25504;DHT22;13410;52.114;5.718;2023-03-14T15:30:39;9.20;99.90
25504;DHT22;13410;52.114;5.718;2023-03-14T15:33:05;9.20;99.90
25504;DHT22;13410;52.114;5.718;2023-03-14T15:35:37;9.20;99.90
25504;DHT22;13410;52.114;5.718;2023-03-14T15:38:02;9.10;99.90
25504;DHT22;13410;52.114;5.718;2023-03-14T15:40:29;9.20;99.90
25504;DHT22;13410;52.114;5.718;2023-03-14T15:42:55;9.30;99.90
25504;DHT22;13410;52.114;5.718;2023-03-14T15:45:21;9.30;99.90
25504;DHT22;13410;52.114;5.718;2023-03-14T15:47:46;9.40;99.90
25504;DHT22;13410;52.114;5.718;2023-03-14T15:50:12;9.50;99.90
25504;DHT22;13410;52.114;5.718;2023-03-14T15:52:38;9.70;99.90
25504;DHT22;13410;52.114;5.718;2023-03-14T15:55:03;9.70;99.90
25504;DHT22;13410;52.114;5.718;2023-03-14T15:57:29;9.50;99.90
25504;DHT22;13410;52.114;5.718;2023-03-14T15:59:54;9.40;99.90
25504;DHT22;13410;52.114;5.718;2023-03-14T16:02:20;9.40;99.90
25504;DHT22;13410;52.114;5.718;2023-03-14T16:04:46;9.30;99.90
25504;DHT22;13410;52.114;5.718;2023-03-14T16:07:11;9.20;99.90
25504;DHT22;13410;52.114;5.718;2023-03-14T16:09:37;9.20;99.90
25504;DHT22;13410;52.114;5.718;2023-03-14T16:12:02;9.30;99.90
25504;DHT22;13410;52.114;5.718;2023-03-14T16:14:30;9.40;99.90
25504;DHT22;13410;52.114;5.718;2023-03-14T16:16:55;9.20;99.90
25504;DHT22;13410;52.114;5.718;2023-03-14T16:19:24;9.10;99.90
25504;DHT22;13410;52.114;5.718;2023-03-14T16:21:51;9.20;99.90
25504;DHT22;13410;52.114;5.718;2023-03-14T16:24:16;9.30;99.90
25504;DHT22;13410;52.114;5.718;2023-03-14T16:26:42;9.50;99.90
25504;DHT22;13410;52.114;5.718;2023-03-14T16:29:09;9.60;99.90
25504;DHT22;13410;52.114;5.718;2023-03-14T16:31:34;9.90;99.90